createdAt,value
2022-08-11T00:01:19.219Z,20.47
2022-08-11T00:04:21.881Z,20.56
2022-08-11T00:06:53.070Z,20.58
2022-08-11T00:09:33.200Z,20.46
2022-08-11T00:12:25.178Z,20.47
2022-08-11T00:15:02.150Z,20.31
2022-08-11T00:17:34.761Z,20.33
2022-08-11T00:20:16.631Z,20.34
2022-08-11T00:22:48.836Z,20.12
2022-08-11T00:25:26.529Z,20.29
2022-08-11T00:27:55.906Z,20.12
2022-08-11T00:30:25.084Z,20.17
2022-08-11T00:32:57.412Z,20.30
2022-08-11T00:35:51.481Z,20.48
2022-08-11T00:38:27.243Z,20.65
2022-08-11T00:41:40.253Z,20.57
2022-08-11T00:44:46.936Z,20.64
2022-08-11T00:47:52.435Z,20.56
2022-08-11T00:50:26.619Z,20.66
2022-08-11T00:53:13.803Z,20.60
2022-08-11T00:56:24.914Z,20.85
2022-08-11T00:59:35.823Z,20.69
2022-08-11T01:02:18.454Z,20.73
2022-08-11T01:05:14.268Z,20.71
2022-08-11T01:08:16.709Z,20.40
2022-08-11T01:10:54.612Z,20.66
2022-08-11T01:13:24.353Z,20.65
2022-08-11T01:16:12.138Z,20.60
2022-08-11T01:19:02.467Z,20.40
2022-08-11T01:21:52.734Z,20.51
2022-08-11T01:25:21.671Z,20.26
2022-08-11T01:28:17.711Z,20.08
2022-08-11T01:31:12.256Z,20.13
2022-08-11T01:33:47.343Z,20.04
2022-08-11T01:36:43.630Z,19.92
2022-08-11T01:39:41.317Z,19.98
2022-08-11T01:42:52.060Z,19.99
2022-08-11T01:45:43.158Z,19.92
2022-08-11T01:48:33.180Z,19.98
2022-08-11T01:51:27.113Z,20.05
2022-08-11T01:54:28.344Z,19.93
2022-08-11T01:57:00.552Z,20.00
2022-08-11T01:59:49.628Z,19.79
2022-08-11T02:02:49.424Z,19.90
2022-08-11T02:05:21.940Z,19.97
2022-08-11T02:08:33.415Z,19.98
2022-08-11T02:11:35.861Z,19.98
2022-08-11T02:14:28.977Z,19.71
2022-08-11T02:17:48.551Z,19.79
2022-08-11T02:20:54.296Z,19.77
2022-08-11T02:24:07.016Z,19.73
2022-08-11T02:26:47.933Z,19.79
2022-08-11T02:30:11.063Z,19.64
2022-08-11T02:33:07.723Z,19.52
2022-08-11T02:35:46.599Z,19.60
2022-08-11T02:38:58.068Z,19.67
2022-08-11T02:42:03.327Z,19.64
2022-08-11T02:45:09.738Z,19.70
2022-08-11T02:48:17.986Z,19.64
2022-08-11T02:51:22.007Z,19.62
2022-08-11T02:54:24.356Z,19.55
2022-08-11T02:56:58.306Z,19.62
2022-08-11T02:59:54.193Z,19.64
2022-08-11T03:02:53.855Z,19.50
2022-08-11T03:05:28.462Z,19.25
2022-08-11T03:08:07.231Z,19.35
2022-08-11T03:11:08.103Z,19.35
2022-08-11T03:14:03.191Z,19.34
2022-08-11T03:16:53.827Z,19.31
2022-08-11T03:19:53.343Z,19.28
2022-08-11T03:22:39.648Z,19.29
2022-08-11T03:25:13.137Z,19.17
2022-08-11T03:28:10.704Z,19.14
2022-08-11T03:31:08.093Z,19.11
2022-08-11T03:34:07.491Z,19.12
2022-08-11T03:36:59.283Z,18.96
2022-08-11T03:39:34.839Z,19.11
2022-08-11T03:42:25.166Z,18.81
2022-08-11T03:45:04.194Z,18.86
2022-08-11T03:47:52.598Z,18.84
2022-08-11T03:50:42.865Z,19.05
2022-08-11T03:53:11.778Z,19.10
2022-08-11T03:56:03.770Z,19.09
2022-08-11T03:59:11.418Z,19.09
2022-08-11T04:02:06.782Z,18.96
2022-08-11T04:04:50.697Z,19.02
2022-08-11T04:08:12.119Z,18.94
2022-08-11T04:11:07.624Z,18.97
2022-08-11T04:14:24.384Z,18.93
2022-08-11T04:17:07.440Z,18.76
2022-08-11T04:19:45.243Z,18.82
2022-08-11T04:22:52.248Z,18.81
2022-08-11T04:25:21.296Z,18.95
2022-08-11T04:28:45.709Z,18.82
2022-08-11T04:31:51.908Z,18.58
2022-08-11T04:34:46.103Z,18.63
2022-08-11T04:37:35.366Z,18.79
2022-08-11T04:40:22.472Z,18.72
2022-08-11T04:43:29.308Z,18.71
2022-08-11T04:46:22.335Z,18.71
2022-08-11T04:49:37.147Z,18.63
2022-08-11T04:52:39.556Z,18.67
2022-08-11T04:55:38.823Z,18.58
2022-08-11T04:58:30.028Z,18.46
2022-08-11T05:01:42.189Z,18.60
2022-08-11T05:05:00.034Z,18.72
2022-08-11T05:08:07.863Z,18.63
2022-08-11T05:10:58.907Z,18.74
2022-08-11T05:13:51.915Z,18.64
2022-08-11T05:16:45.169Z,18.72
2022-08-11T05:19:38.603Z,18.68
2022-08-11T05:22:29.984Z,18.44
2022-08-11T05:26:44.641Z,18.41
2022-08-11T05:28:54.520Z,18.30
2022-08-11T05:31:52.997Z,18.62
2022-08-11T05:34:55.763Z,18.61
2022-08-11T05:37:30.971Z,18.56
2022-08-11T05:40:27.777Z,18.54
2022-08-11T05:43:20.696Z,18.50
2022-08-11T05:46:19.916Z,18.59
2022-08-11T05:49:08.914Z,18.54
2022-08-11T05:52:05.539Z,18.66
2022-08-11T05:55:06.906Z,18.64
2022-08-11T05:57:50.647Z,18.65
2022-08-11T06:00:21.538Z,18.69
2022-08-11T06:02:56.090Z,18.72
2022-08-11T06:05:45.268Z,18.45
2022-08-11T06:08:15.613Z,18.57
2022-08-11T06:10:46.332Z,18.55
2022-08-11T06:13:19.349Z,18.59
2022-08-11T06:15:50.567Z,18.51
2022-08-11T06:18:21.515Z,18.49
2022-08-11T06:20:56.371Z,18.43
2022-08-11T06:23:32.829Z,18.47
2022-08-11T06:26:13.847Z,18.37
2022-08-11T06:28:47.974Z,18.44
2022-08-11T06:31:27.118Z,18.30
2022-08-11T06:34:42.050Z,18.34
2022-08-11T06:37:36.259Z,18.26
2022-08-11T06:40:29.346Z,18.12
2022-08-11T06:43:26.708Z,18.13
2022-08-11T06:46:09.488Z,18.03
2022-08-11T06:48:41.294Z,18.08
2022-08-11T06:51:14.768Z,17.97
2022-08-11T06:53:57.573Z,17.98
2022-08-11T07:00:05.639Z,17.93
2022-08-11T07:03:10.160Z,17.85
2022-08-11T07:05:47.679Z,17.79
2022-08-11T07:08:37.948Z,17.70
2022-08-11T07:11:39.327Z,17.67
2022-08-11T07:14:27.713Z,17.69
2022-08-11T07:16:59.672Z,17.62
2022-08-11T07:19:50.088Z,17.57
2022-08-11T07:22:42.101Z,17.59
2022-08-11T07:25:43.348Z,17.50
2022-08-11T07:28:41.180Z,17.41
2022-08-11T07:31:14.882Z,17.45
2022-08-11T07:34:06.953Z,17.42
2022-08-11T07:36:43.818Z,17.34
2022-08-11T07:39:21.806Z,17.29
2022-08-11T07:41:53.017Z,17.25
2022-08-11T07:44:30.764Z,17.25
2022-08-11T07:47:21.728Z,17.13
2022-08-11T07:50:13.132Z,17.12
2022-08-11T07:52:42.679Z,17.11
2022-08-11T07:55:19.731Z,17.03
2022-08-11T07:58:15.467Z,17.01
2022-08-11T08:01:21.457Z,16.98
2022-08-11T08:04:10.838Z,16.96
2022-08-11T08:06:59.184Z,16.93
2022-08-11T08:09:48.023Z,16.94
2022-08-11T08:12:35.965Z,16.91
2022-08-11T08:15:26.847Z,16.88
2022-08-11T08:18:09.719Z,16.75
2022-08-11T08:20:50.815Z,16.75
2022-08-11T08:23:34.117Z,16.80
2022-08-11T08:26:26.987Z,16.70
2022-08-11T08:29:17.620Z,16.72
2022-08-11T08:31:49.454Z,16.74
2022-08-11T08:34:19.983Z,16.71
2022-08-11T08:36:51.839Z,16.71
2022-08-11T08:39:22.531Z,16.68
2022-08-11T08:41:55.591Z,16.60
2022-08-11T08:44:44.667Z,16.52
2022-08-11T08:47:41.923Z,16.52
2022-08-11T08:50:20.312Z,16.51
2022-08-11T08:53:06.716Z,16.54
2022-08-11T08:55:36.240Z,16.50
2022-08-11T08:58:05.527Z,16.46
2022-08-11T09:00:45.540Z,16.41
2022-08-11T09:03:39.423Z,16.39
2022-08-11T09:06:05.257Z,16.38
2022-08-11T09:08:36.048Z,16.31
2022-08-11T09:11:24.703Z,16.33
2022-08-11T09:14:06.611Z,16.28
2022-08-11T09:16:38.132Z,16.24
2022-08-11T09:19:09.254Z,16.14
2022-08-11T09:21:49.198Z,16.09
2022-08-11T09:24:38.556Z,16.03
2022-08-11T09:27:09.582Z,15.98
2022-08-11T09:29:39.986Z,15.98
2022-08-11T09:32:09.782Z,16.01
2022-08-11T09:34:40.419Z,16.02
2022-08-11T09:37:55.270Z,16.03
2022-08-11T09:40:30.352Z,16.02
2022-08-11T09:43:21.533Z,16.05
2022-08-11T09:45:55.362Z,16.08
2022-08-11T09:48:31.081Z,16.11
2022-08-11T09:51:03.224Z,16.10
2022-08-11T09:53:40.520Z,16.12
2022-08-11T09:56:38.377Z,16.18
2022-08-11T09:59:08.610Z,16.16
2022-08-11T10:01:47.305Z,16.09
2022-08-11T10:04:23.964Z,16.14
2022-08-11T10:07:04.898Z,16.10
2022-08-11T10:09:37.388Z,16.10
2022-08-11T10:12:12.294Z,16.09
2022-08-11T10:15:13.483Z,16.09
2022-08-11T10:18:08.414Z,16.06
2022-08-11T10:20:40.278Z,16.02
2022-08-11T10:23:29.705Z,16.03
2022-08-11T10:26:17.687Z,16.02
2022-08-11T10:29:11.633Z,16.03
2022-08-11T10:31:58.004Z,16.05
2022-08-11T10:34:29.410Z,16.06
2022-08-11T10:37:03.869Z,16.11
2022-08-11T10:39:33.927Z,16.15
2022-08-11T10:42:35.365Z,16.09
2022-08-11T10:45:32.163Z,16.09
2022-08-11T10:48:02.382Z,16.04
2022-08-11T10:50:50.112Z,16.07
2022-08-11T10:53:39.295Z,16.03
2022-08-11T10:56:27.723Z,16.01
2022-08-11T10:59:03.447Z,15.98
2022-08-11T11:01:36.488Z,16.07
2022-08-11T11:04:37.847Z,16.07
2022-08-11T11:07:18.719Z,16.05
2022-08-11T11:09:56.521Z,16.01
2022-08-11T11:12:57.957Z,16.02
2022-08-11T11:15:48.722Z,16.05
2022-08-11T11:18:36.731Z,16.06
2022-08-11T11:21:10.294Z,16.02
2022-08-11T11:23:48.124Z,16.07
2022-08-11T11:26:57.106Z,16.07
2022-08-11T11:30:07.653Z,16.06
2022-08-11T11:32:36.671Z,16.07
2022-08-11T11:35:11.326Z,15.97
2022-08-11T11:38:03.661Z,15.88
2022-08-11T11:40:32.189Z,15.84
2022-08-11T11:43:02.730Z,15.70
2022-08-11T11:45:32.533Z,15.57
2022-08-11T11:48:03.489Z,15.83
2022-08-11T11:50:35.580Z,15.88
2022-08-11T11:53:09.445Z,15.73
2022-08-11T11:55:39.056Z,15.79
2022-08-11T11:58:27.497Z,15.90
2022-08-11T12:01:16.891Z,15.86
2022-08-11T12:03:48.607Z,15.87
2022-08-11T12:06:20.205Z,15.82
2022-08-11T12:08:52.966Z,15.75
2022-08-11T12:11:43.776Z,15.66
2022-08-11T12:14:16.701Z,15.73
2022-08-11T12:16:48.264Z,15.73
2022-08-11T12:19:35.471Z,15.69
2022-08-11T12:22:24.062Z,15.65
2022-08-11T12:25:11.449Z,15.73
2022-08-11T12:27:42.511Z,15.73
2022-08-11T12:30:12.209Z,15.67
2022-08-11T12:32:42.352Z,15.13
2022-08-11T12:35:12.287Z,15.31
2022-08-11T12:38:03.610Z,15.52
2022-08-11T12:44:07.669Z,15.70
2022-08-11T12:46:41.407Z,15.69
2022-08-11T12:49:45.194Z,15.63
2022-08-11T12:52:22.538Z,15.61
2022-08-11T12:55:03.075Z,15.61
2022-08-11T12:58:04.636Z,15.81
2022-08-11T13:00:52.867Z,15.86
2022-08-11T13:03:41.220Z,15.84
2022-08-11T13:06:11.052Z,15.85
2022-08-11T13:08:42.125Z,15.64
2022-08-11T13:11:56.674Z,15.60
2022-08-11T13:14:28.462Z,15.56
2022-08-11T13:17:16.878Z,15.61
2022-08-11T13:19:49.825Z,15.69
2022-08-11T13:22:21.255Z,15.56
2022-08-11T13:24:52.007Z,15.46
2022-08-11T13:27:21.695Z,15.89
2022-08-11T13:30:12.547Z,15.71
2022-08-11T13:32:43.737Z,15.69
2022-08-11T13:35:24.655Z,15.66
2022-08-11T13:38:18.844Z,15.73
2022-08-11T13:40:55.751Z,15.88
2022-08-11T13:43:26.212Z,15.91
2022-08-11T13:46:16.163Z,15.77
2022-08-11T13:48:45.861Z,15.75
2022-08-11T13:51:35.602Z,15.90
2022-08-11T13:54:18.427Z,15.88
2022-08-11T13:56:53.735Z,15.97
2022-08-11T13:59:31.141Z,16.10
2022-08-11T14:02:21.734Z,16.07
2022-08-11T14:05:04.732Z,16.06
2022-08-11T14:07:39.893Z,16.35
2022-08-11T14:10:12.249Z,16.60
2022-08-11T14:13:06.467Z,16.59
2022-08-11T14:15:37.676Z,16.52
2022-08-11T14:18:24.503Z,16.58
2022-08-11T14:21:19.167Z,16.60
2022-08-11T14:23:51.739Z,16.66
2022-08-11T14:26:29.404Z,16.67
2022-08-11T14:29:07.158Z,16.54
2022-08-11T14:31:40.214Z,16.55
2022-08-11T14:34:15.423Z,16.53
2022-08-11T14:36:53.161Z,16.41
2022-08-11T14:39:31.529Z,16.39
2022-08-11T14:42:23.371Z,16.85
2022-08-11T14:45:17.740Z,16.93
2022-08-11T14:47:54.268Z,16.87
2022-08-11T14:50:26.929Z,16.63
2022-08-11T14:53:04.152Z,16.72
2022-08-11T14:56:01.118Z,17.01
2022-08-11T14:58:34.752Z,16.94
2022-08-11T15:01:25.475Z,17.15
2022-08-11T15:04:34.211Z,17.29
2022-08-11T15:06:45.219Z,17.20
2022-08-11T15:09:14.420Z,17.03
2022-08-11T15:12:03.132Z,17.19
2022-08-11T15:14:56.034Z,17.25
2022-08-11T15:17:43.040Z,17.22
2022-08-11T15:20:35.339Z,17.26
2022-08-11T15:23:24.104Z,17.23
2022-08-11T15:26:50.294Z,17.24
2022-08-11T15:29:43.147Z,17.25
2022-08-11T15:32:36.540Z,17.24
2022-08-11T15:35:24.382Z,16.99
2022-08-11T15:37:57.990Z,17.03
2022-08-11T15:40:49.614Z,16.72
2022-08-11T15:43:59.951Z,17.11
2022-08-11T15:46:36.778Z,17.23
2022-08-11T15:49:22.141Z,17.22
2022-08-11T15:52:02.301Z,17.28
2022-08-11T15:54:34.763Z,17.28
2022-08-11T15:57:06.032Z,17.46
2022-08-11T15:59:56.379Z,17.55
2022-08-11T16:02:46.384Z,17.60
2022-08-11T16:05:45.975Z,17.65
2022-08-11T16:08:10.236Z,17.89
2022-08-11T16:10:44.073Z,17.93
2022-08-11T16:13:31.025Z,17.84
2022-08-11T16:16:19.505Z,17.85
2022-08-11T16:18:58.558Z,18.08
2022-08-11T16:21:41.365Z,17.94
2022-08-11T16:27:04.998Z,18.07
2022-08-11T16:27:13.592Z,18.14
2022-08-11T16:29:47.404Z,18.19
2022-08-11T16:32:27.918Z,18.26
2022-08-11T16:35:22.164Z,18.29
2022-08-11T16:38:11.877Z,18.34
2022-08-11T16:40:42.819Z,18.40
2022-08-11T16:43:34.943Z,18.31
2022-08-11T16:46:24.984Z,18.41
2022-08-11T16:48:56.068Z,18.66
2022-08-11T16:51:25.464Z,18.59
2022-08-11T16:54:05.300Z,18.68
2022-08-11T16:56:40.369Z,18.72
2022-08-11T16:59:31.062Z,18.68
2022-08-11T17:02:00.045Z,18.56
2022-08-11T17:04:55.856Z,18.80
2022-08-11T17:07:47.134Z,18.75
2022-08-11T17:10:57.624Z,18.72
2022-08-11T17:13:41.371Z,18.78
2022-08-11T17:16:13.415Z,18.94
2022-08-11T17:18:45.566Z,18.93
2022-08-11T17:21:20.889Z,19.01
2022-08-11T17:23:55.760Z,19.05
2022-08-11T17:26:59.107Z,18.92
2022-08-11T17:29:54.658Z,19.05
2022-08-11T17:33:09.651Z,19.32
2022-08-11T17:35:42.677Z,19.49
2022-08-11T17:38:15.750Z,19.65
2022-08-11T17:41:10.897Z,19.67
2022-08-11T17:44:09.738Z,19.93
2022-08-11T17:47:05.164Z,20.12
2022-08-11T17:49:38.942Z,20.19
2022-08-11T17:52:33.194Z,20.26
2022-08-11T17:55:52.343Z,20.41
2022-08-11T17:58:34.283Z,20.48
2022-08-11T18:01:09.276Z,20.47
2022-08-11T18:03:41.948Z,20.74
2022-08-11T18:06:33.498Z,20.51
2022-08-11T18:09:27.572Z,20.90
2022-08-11T18:12:16.417Z,20.53
2022-08-11T18:15:07.971Z,20.94
2022-08-11T18:17:56.792Z,21.34
2022-08-11T18:20:44.747Z,21.34
2022-08-11T18:23:46.896Z,21.56
2022-08-11T18:26:41.099Z,21.58
2022-08-11T18:29:31.124Z,21.95
2022-08-11T18:32:49.194Z,21.98
2022-08-11T18:35:39.887Z,22.27
2022-08-11T18:38:35.654Z,22.46
2022-08-11T18:41:25.034Z,22.81
2022-08-11T18:44:15.673Z,22.63
2022-08-11T18:47:08.058Z,23.07
2022-08-11T18:50:02.569Z,22.76
2022-08-11T18:52:56.155Z,23.04
2022-08-11T18:55:44.746Z,23.14
2022-08-11T18:58:36.552Z,23.28
2022-08-11T19:01:26.390Z,23.05
2022-08-11T19:04:17.451Z,23.39
2022-08-11T19:07:14.131Z,22.94
2022-08-11T19:10:05.985Z,23.28
2022-08-11T19:12:59.134Z,23.51
2022-08-11T19:15:48.443Z,23.67
2022-08-11T19:18:40.468Z,23.77
2022-08-11T19:21:29.417Z,23.56
2022-08-11T19:24:20.157Z,23.84
2022-08-11T19:27:12.664Z,23.47
2022-08-11T19:30:07.385Z,23.37
2022-08-11T19:33:02.767Z,23.87
2022-08-11T19:35:54.821Z,23.42
2022-08-11T19:38:43.368Z,23.93
2022-08-11T19:41:56.602Z,24.53
2022-08-11T19:44:43.283Z,24.49
2022-08-11T19:47:31.558Z,24.43
2022-08-11T19:50:24.194Z,24.55
2022-08-11T19:53:17.538Z,24.14
2022-08-11T19:56:12.086Z,24.72
2022-08-11T19:59:01.298Z,24.60
2022-08-11T20:02:04.016Z,24.83
2022-08-11T20:04:59.046Z,24.64
2022-08-11T20:07:51.681Z,24.90
2022-08-11T20:10:41.443Z,25.16
2022-08-11T20:13:31.226Z,25.24
2022-08-11T20:16:19.794Z,24.96
2022-08-11T20:19:09.684Z,25.32
2022-08-11T20:22:00.990Z,25.20
2022-08-11T20:24:54.723Z,25.63
2022-08-11T20:27:46.425Z,25.14
2022-08-11T20:30:37.117Z,25.03
2022-08-11T20:33:25.196Z,25.75
2022-08-11T20:36:14.094Z,26.31
2022-08-11T20:39:03.383Z,25.84
2022-08-11T20:41:59.280Z,25.87
2022-08-11T20:44:47.813Z,25.88
2022-08-11T20:50:46.615Z,25.44
2022-08-11T20:53:39.356Z,25.78
2022-08-11T20:56:30.109Z,25.72
2022-08-11T20:59:23.110Z,25.59
2022-08-11T21:02:11.470Z,26.06
2022-08-11T21:05:00.617Z,26.19
2022-08-11T21:07:56.957Z,25.99
2022-08-11T21:10:51.411Z,26.32
2022-08-11T21:13:43.353Z,25.86
2022-08-11T21:16:39.364Z,25.69
2022-08-11T21:19:59.605Z,25.90
2022-08-11T21:22:59.547Z,26.08
2022-08-11T21:26:14.209Z,25.87
2022-08-11T21:29:02.941Z,25.85
2022-08-11T21:31:52.001Z,25.77
2022-08-11T21:34:43.512Z,26.38
2022-08-11T21:37:32.357Z,26.96
2022-08-11T21:40:23.721Z,25.98
2022-08-11T21:43:13.330Z,25.83
2022-08-11T21:46:02.900Z,26.04
2022-08-11T21:48:51.254Z,26.21
2022-08-11T21:51:38.651Z,26.28
2022-08-11T21:54:32.980Z,26.66
2022-08-11T21:57:21.244Z,26.25
2022-08-11T22:00:14.795Z,26.89
2022-08-11T22:03:06.229Z,26.59
2022-08-11T22:05:56.139Z,27.07
2022-08-11T22:08:43.533Z,27.44
2022-08-11T22:11:32.203Z,26.99
2022-08-11T22:14:21.120Z,28.01
2022-08-11T22:17:09.116Z,27.57
2022-08-11T22:19:59.711Z,28.12
2022-08-11T22:22:53.027Z,28.32
2022-08-11T22:25:55.088Z,27.45
2022-08-11T22:28:49.130Z,27.56
2022-08-11T22:31:36.992Z,28.53
2022-08-11T22:34:26.401Z,28.06
2022-08-11T22:37:27.244Z,27.93
2022-08-11T22:40:17.990Z,27.86
2022-08-11T22:43:05.996Z,27.28
2022-08-11T22:45:53.217Z,28.62
2022-08-11T22:48:41.488Z,28.10
2022-08-11T22:51:29.902Z,28.44
2022-08-11T22:54:18.908Z,28.11
2022-08-11T22:57:07.728Z,28.45
2022-08-11T22:59:56.553Z,28.98
2022-08-11T23:02:47.621Z,28.32
2022-08-11T23:05:36.577Z,29.11
2022-08-11T23:08:24.936Z,29.00
2022-08-11T23:11:12.779Z,29.16
2022-08-11T23:14:01.242Z,28.32
2022-08-11T23:16:50.650Z,28.05
2022-08-11T23:20:08.223Z,29.05
2022-08-11T23:22:50.160Z,28.34
2022-08-11T23:25:38.713Z,29.15
2022-08-11T23:28:29.245Z,29.14
2022-08-11T23:31:18.295Z,29.45
2022-08-11T23:35:02.381Z,28.76
2022-08-11T23:37:20.079Z,28.40
2022-08-11T23:40:07.460Z,29.21
2022-08-11T23:42:59.340Z,29.53
2022-08-11T23:45:46.711Z,29.93
2022-08-11T23:48:36.089Z,29.67
2022-08-11T23:51:25.069Z,29.75
2022-08-11T23:54:34.983Z,29.66
2022-08-11T23:57:25.296Z,29.47
